NKS2990 KMYF-KLAX
Flight info
| Callsign | NKS2990 |
|---|---|
| Flight time | 0h 26m |
| Altitude | 12000 |
| Route | SLI |
| Aircraft | A21N/M-SDE2E3FGHIRWXY/LB1 |
Departure
| Time | 2026-04-23 05:10 |
|---|---|
| Airport | Montgomery-Gibbs Executive Airport (KMYF) |
Arrival
| Time | 2026-04-23 05:37 |
|---|---|
| Airport | Los Angeles International Airport (KLAX) |
| Time | Latitude | Longitude | Altitude | Speed | Heading |
|---|---|---|---|---|---|
| 2026-04-23 04:52 | 32.81311 | -117.14212 | 419 ft | 0 kts | 294° |
| 2026-04-23 05:05 | 32.81309 | -117.14207 | 418 ft | 2 kts | 310° |
| 2026-04-23 05:05 | 32.81294 | -117.14198 | 418 ft | 3 kts | 9° |
| 2026-04-23 05:05 | 32.81290 | -117.14198 | 417 ft | 0 kts | 24° |
| 2026-04-23 05:06 | 32.81291 | -117.14198 | 416 ft | 1 kts | 24° |
| 2026-04-23 05:06 | 32.81301 | -117.14189 | 419 ft | 7 kts | 45° |
| 2026-04-23 05:06 | 32.81354 | -117.14108 | 420 ft | 12 kts | 30° |
| 2026-04-23 05:06 | 32.81411 | -117.14056 | 425 ft | 10 kts | 75° |
| 2026-04-23 05:07 | 32.81397 | -117.13981 | 431 ft | 9 kts | 115° |
| 2026-04-23 05:07 | 32.81362 | -117.13891 | 428 ft | 16 kts | 115° |
| 2026-04-23 05:07 | 32.81306 | -117.13749 | 428 ft | 21 kts | 115° |
| 2026-04-23 05:07 | 32.81245 | -117.13595 | 430 ft | 20 kts | 115° |
| 2026-04-23 05:08 | 32.81186 | -117.13447 | 429 ft | 20 kts | 119° |
| 2026-04-23 05:08 | 32.81122 | -117.13314 | 428 ft | 10 kts | 109° |
| 2026-04-23 05:08 | 32.81134 | -117.13242 | 428 ft | 9 kts | 66° |
| 2026-04-23 05:08 | 32.81165 | -117.13183 | 428 ft | 9 kts | 50° |
| 2026-04-23 05:09 | 32.81213 | -117.13141 | 429 ft | 8 kts | 29° |
| 2026-04-23 05:09 | 32.81261 | -117.13121 | 427 ft | 7 kts | 0° |
| 2026-04-23 05:09 | 32.81295 | -117.13150 | 423 ft | 0 kts | 302° |
| 2026-04-23 05:09 | 32.81311 | -117.13181 | 423 ft | 7 kts | 297° |
| 2026-04-23 05:10 | 32.81374 | -117.13349 | 419 ft | 60 kts | 296° |
| 2026-04-23 05:10 | 32.81665 | -117.14086 | 421 ft | 138 kts | 295° |
| 2026-04-23 05:10 | 32.82145 | -117.15305 | 775 ft | 173 kts | 294° |
| 2026-04-23 05:10 | 32.82691 | -117.16698 | 1265 ft | 197 kts | 295° |
| 2026-04-23 05:11 | 32.83305 | -117.18255 | 1534 ft | 219 kts | 295° |
| 2026-04-23 05:11 | 32.83987 | -117.19982 | 1816 ft | 240 kts | 295° |
| 2026-04-23 05:11 | 32.84668 | -117.21704 | 2061 ft | 215 kts | 295° |
| 2026-04-23 05:11 | 32.85258 | -117.23197 | 2251 ft | 185 kts | 295° |
| 2026-04-23 05:12 | 32.85808 | -117.24589 | 2513 ft | 200 kts | 295° |
| 2026-04-23 05:12 | 32.86442 | -117.26193 | 2780 ft | 228 kts | 295° |
| 2026-04-23 05:12 | 32.87154 | -117.27995 | 3061 ft | 253 kts | 295° |
| 2026-04-23 05:12 | 32.87925 | -117.29945 | 3332 ft | 265 kts | 295° |
| 2026-04-23 05:13 | 32.88717 | -117.31947 | 3573 ft | 267 kts | 295° |
| 2026-04-23 05:13 | 32.89512 | -117.33957 | 3829 ft | 269 kts | 295° |
| 2026-04-23 05:13 | 32.90314 | -117.35985 | 4170 ft | 274 kts | 295° |
| 2026-04-23 05:14 | 32.91636 | -117.39325 | 5872 ft | 259 kts | 295° |
| 2026-04-23 05:14 | 32.92394 | -117.41239 | 6841 ft | 253 kts | 295° |
| 2026-04-23 05:14 | 32.93144 | -117.43133 | 7648 ft | 253 kts | 295° |
| 2026-04-23 05:14 | 32.93898 | -117.45038 | 8395 ft | 256 kts | 295° |
| 2026-04-23 05:15 | 32.94661 | -117.46963 | 9126 ft | 258 kts | 295° |
| 2026-04-23 05:15 | 32.95443 | -117.48937 | 9662 ft | 270 kts | 295° |
| 2026-04-23 05:15 | 32.96273 | -117.51034 | 9853 ft | 289 kts | 295° |
| 2026-04-23 05:15 | 32.97136 | -117.53211 | 9865 ft | 294 kts | 295° |
| 2026-04-23 05:16 | 32.98011 | -117.55420 | 9857 ft | 295 kts | 295° |
| 2026-04-23 05:16 | 32.98886 | -117.57627 | 9857 ft | 295 kts | 295° |
| 2026-04-23 05:16 | 32.99764 | -117.59842 | 9863 ft | 295 kts | 295° |
| 2026-04-23 05:16 | 33.00640 | -117.62051 | 9863 ft | 295 kts | 295° |
| 2026-04-23 05:17 | 33.01515 | -117.64260 | 9863 ft | 295 kts | 295° |
| 2026-04-23 05:17 | 33.02397 | -117.66481 | 9861 ft | 295 kts | 295° |
| 2026-04-23 05:17 | 33.03262 | -117.68664 | 9862 ft | 295 kts | 295° |
| 2026-04-23 05:17 | 33.04139 | -117.70874 | 9862 ft | 295 kts | 295° |
| 2026-04-23 05:18 | 33.05016 | -117.73083 | 9865 ft | 295 kts | 295° |
| 2026-04-23 05:18 | 33.05894 | -117.75295 | 9857 ft | 295 kts | 295° |
| 2026-04-23 05:18 | 33.06772 | -117.77506 | 9866 ft | 295 kts | 295° |
| 2026-04-23 05:18 | 33.07759 | -117.79647 | 9858 ft | 295 kts | 306° |
| 2026-04-23 05:19 | 33.09175 | -117.81405 | 9861 ft | 294 kts | 323° |
| 2026-04-23 05:19 | 33.10970 | -117.82574 | 9865 ft | 295 kts | 337° |
| 2026-04-23 05:19 | 33.12887 | -117.83461 | 9858 ft | 296 kts | 340° |
| 2026-04-23 05:19 | 33.14830 | -117.84288 | 9862 ft | 296 kts | 340° |
| 2026-04-23 05:20 | 33.16775 | -117.85102 | 9863 ft | 296 kts | 340° |
| 2026-04-23 05:20 | 33.18725 | -117.85908 | 9861 ft | 296 kts | 342° |
| 2026-04-23 05:20 | 33.20695 | -117.86522 | 9864 ft | 296 kts | 347° |
| 2026-04-23 05:20 | 33.22737 | -117.87044 | 9863 ft | 296 kts | 348° |
| 2026-04-23 05:21 | 33.24757 | -117.87541 | 9818 ft | 297 kts | 348° |
| 2026-04-23 05:21 | 33.26786 | -117.88041 | 9338 ft | 298 kts | 348° |
| 2026-04-23 05:21 | 33.28766 | -117.88530 | 9090 ft | 292 kts | 348° |
| 2026-04-23 05:21 | 33.30755 | -117.89023 | 8829 ft | 292 kts | 348° |
| 2026-04-23 05:22 | 33.32746 | -117.89518 | 8594 ft | 291 kts | 348° |
| 2026-04-23 05:22 | 33.34728 | -117.90011 | 8345 ft | 290 kts | 348° |
| 2026-04-23 05:22 | 33.36701 | -117.90503 | 8092 ft | 289 kts | 348° |
| 2026-04-23 05:22 | 33.38661 | -117.91046 | 7834 ft | 288 kts | 344° |
| 2026-04-23 05:23 | 33.40584 | -117.91709 | 7591 ft | 287 kts | 343° |
| 2026-04-23 05:23 | 33.42496 | -117.92401 | 7340 ft | 286 kts | 342° |
| 2026-04-23 05:23 | 33.44397 | -117.93094 | 7090 ft | 285 kts | 342° |
| 2026-04-23 05:23 | 33.46292 | -117.93785 | 6838 ft | 284 kts | 342° |
| 2026-04-23 05:24 | 33.48179 | -117.94473 | 6588 ft | 283 kts | 342° |
| 2026-04-23 05:24 | 33.50035 | -117.95148 | 6341 ft | 282 kts | 342° |
| 2026-04-23 05:24 | 33.51908 | -117.95830 | 6084 ft | 281 kts | 342° |
| 2026-04-23 05:24 | 33.53775 | -117.96509 | 5724 ft | 279 kts | 342° |
| 2026-04-23 05:25 | 33.55634 | -117.97186 | 5279 ft | 277 kts | 342° |
| 2026-04-23 05:25 | 33.57477 | -117.97858 | 4831 ft | 275 kts | 342° |
| 2026-04-23 05:25 | 33.59308 | -117.98525 | 4364 ft | 274 kts | 342° |
| 2026-04-23 05:25 | 33.61098 | -117.99178 | 3940 ft | 272 kts | 342° |
| 2026-04-23 05:26 | 33.62901 | -117.99836 | 3500 ft | 270 kts | 342° |
| 2026-04-23 05:26 | 33.64690 | -118.00488 | 3205 ft | 267 kts | 342° |
| 2026-04-23 05:26 | 33.66471 | -118.01138 | 3066 ft | 267 kts | 342° |
| 2026-04-23 05:26 | 33.68254 | -118.01789 | 2939 ft | 268 kts | 342° |
| 2026-04-23 05:27 | 33.70041 | -118.02442 | 2819 ft | 268 kts | 342° |
| 2026-04-23 05:27 | 33.71803 | -118.03085 | 2693 ft | 267 kts | 342° |
| 2026-04-23 05:27 | 33.73600 | -118.03742 | 2563 ft | 266 kts | 342° |
| 2026-04-23 05:27 | 33.75353 | -118.04384 | 2447 ft | 266 kts | 342° |
| 2026-04-23 05:28 | 33.77124 | -118.05032 | 2319 ft | 266 kts | 342° |
| 2026-04-23 05:28 | 33.78899 | -118.05647 | 2193 ft | 265 kts | 344° |
| 2026-04-23 05:28 | 33.80678 | -118.06227 | 2093 ft | 264 kts | 345° |
| 2026-04-23 05:28 | 33.82455 | -118.06799 | 2079 ft | 264 kts | 345° |
| 2026-04-23 05:29 | 33.84231 | -118.07369 | 2079 ft | 264 kts | 345° |
| 2026-04-23 05:29 | 33.86008 | -118.07940 | 2079 ft | 264 kts | 345° |
| 2026-04-23 05:29 | 33.87792 | -118.08513 | 2079 ft | 264 kts | 345° |
| 2026-04-23 05:29 | 33.89569 | -118.09085 | 2076 ft | 264 kts | 345° |
| 2026-04-23 05:30 | 33.91345 | -118.09656 | 2078 ft | 264 kts | 345° |
| 2026-04-23 05:30 | 33.93078 | -118.10214 | 2070 ft | 248 kts | 345° |
| 2026-04-23 05:30 | 33.94665 | -118.10734 | 2086 ft | 225 kts | 342° |
| 2026-04-23 05:30 | 33.96019 | -118.11457 | 2076 ft | 201 kts | 326° |
| 2026-04-23 05:31 | 33.96968 | -118.12515 | 2070 ft | 177 kts | 306° |
| 2026-04-23 05:31 | 33.97505 | -118.13729 | 2080 ft | 157 kts | 288° |
| 2026-04-23 05:31 | 33.97707 | -118.15010 | 2060 ft | 157 kts | 271° |
| 2026-04-23 05:31 | 33.97650 | -118.16333 | 2075 ft | 158 kts | 264° |
| 2026-04-23 05:32 | 33.97520 | -118.17644 | 2079 ft | 158 kts | 263° |
| 2026-04-23 05:32 | 33.97380 | -118.18953 | 2078 ft | 158 kts | 263° |
| 2026-04-23 05:32 | 33.97241 | -118.20267 | 2079 ft | 158 kts | 263° |
| 2026-04-23 05:32 | 33.97105 | -118.21582 | 2077 ft | 158 kts | 263° |
| 2026-04-23 05:33 | 33.96970 | -118.22894 | 2079 ft | 158 kts | 263° |
| 2026-04-23 05:33 | 33.96837 | -118.24202 | 2066 ft | 157 kts | 263° |
| 2026-04-23 05:33 | 33.96702 | -118.25520 | 1877 ft | 160 kts | 263° |
| 2026-04-23 05:33 | 33.96565 | -118.26850 | 1876 ft | 158 kts | 263° |
| 2026-04-23 05:34 | 33.96433 | -118.28140 | 1881 ft | 156 kts | 263° |
| 2026-04-23 05:34 | 33.96302 | -118.29438 | 1745 ft | 156 kts | 263° |
| 2026-04-23 05:34 | 33.96172 | -118.30740 | 1534 ft | 156 kts | 263° |
| 2026-04-23 05:34 | 33.96041 | -118.32036 | 1323 ft | 156 kts | 263° |
| 2026-04-23 05:35 | 33.95909 | -118.33328 | 1104 ft | 155 kts | 263° |
| 2026-04-23 05:35 | 33.95778 | -118.34614 | 896 ft | 153 kts | 263° |
| 2026-04-23 05:35 | 33.95650 | -118.35870 | 683 ft | 150 kts | 263° |
| 2026-04-23 05:35 | 33.95523 | -118.37109 | 475 ft | 149 kts | 263° |
| 2026-04-23 05:36 | 33.95396 | -118.38360 | 288 ft | 152 kts | 263° |
| 2026-04-23 05:36 | 33.95271 | -118.39575 | 242 ft | 137 kts | 263° |
| 2026-04-23 05:36 | 33.95164 | -118.40648 | 126 ft | 123 kts | 264° |
| 2026-04-23 05:36 | 33.95083 | -118.41441 | 128 ft | 60 kts | 263° |
| 2026-04-23 05:37 | 33.95048 | -118.41702 | 124 ft | 25 kts | 253° |
| 2026-04-23 05:37 | 33.94984 | -118.41851 | 125 ft | 0 kts | 236° |
| 2026-04-23 05:37 | 33.94983 | -118.41853 | 125 ft | 0 kts | 236° |
| 2026-04-23 05:38 | 33.94981 | -118.41857 | 128 ft | 1 kts | 236° |
| 2026-04-23 05:38 | 33.94978 | -118.41861 | 127 ft | 1 kts | 236° |
| 2026-04-23 05:38 | 33.94942 | -118.41923 | 126 ft | 14 kts | 233° |
| 2026-04-23 05:38 | 33.94866 | -118.42042 | 126 ft | 21 kts | 232° |
| 2026-04-23 05:39 | 33.94777 | -118.42186 | 129 ft | 21 kts | 234° |
| 2026-04-23 05:39 | 33.94682 | -118.42199 | 126 ft | 12 kts | 110° |
| 2026-04-23 05:39 | 33.94691 | -118.42116 | 126 ft | 11 kts | 76° |
| 2026-04-23 05:39 | 33.94709 | -118.41992 | 129 ft | 17 kts | 83° |
| 2026-04-23 05:40 | 33.94724 | -118.41852 | 127 ft | 17 kts | 83° |
| 2026-04-23 05:40 | 33.94738 | -118.41711 | 129 ft | 19 kts | 83° |
| 2026-04-23 05:40 | 33.94754 | -118.41549 | 129 ft | 19 kts | 83° |
| 2026-04-23 05:40 | 33.94743 | -118.41404 | 125 ft | 17 kts | 135° |
| 2026-04-23 05:41 | 33.94671 | -118.41298 | 123 ft | 15 kts | 138° |
| 2026-04-23 05:41 | 33.94576 | -118.41266 | 127 ft | 14 kts | 174° |
| 2026-04-23 05:41 | 33.94525 | -118.41198 | 127 ft | 12 kts | 88° |
| 2026-04-23 05:41 | 33.94524 | -118.41153 | 129 ft | 0 kts | 96° |
| 2026-04-23 05:42 | 33.94523 | -118.41149 | 129 ft | 1 kts | 97° |
| 2026-04-23 05:42 | 33.94523 | -118.41147 | 127 ft | 0 kts | 97° |